Voorhees Township, New Jersey
Current Conditions -  °F | °C
As of 6:54 PM on Wednesday 26 Nov 2014 (Local Time) from KVAY Reporting Station
Haze Haze  
Wind Chill: 26°   Ceiling: 800
Heat Index: 35°   Visibility: 3mi
Dew Point: 32°   Wind: 15mph
Humidity: 89%   Direction: 320°NW
Pressure: 29.84"   Gusts: 23mph
Location:  39.8445°N, 74.9532°W
Report Text: KVAY 262354Z AUTO 32013G20KT 3SM UP BR OVC008 02/00 A2984 RMK AO2 RAB01E54UPB54SNE01 SLP105 P0003 60036 T00170000 10022 20011 50014
Loading
Personal Weather Stations






























Interactive Weather Map New forecast layout! Learn more

10-Day Weather Forecast

Advertisements
Track Severe Weather on mobile